Station info - map view · info · telemetry · weather · raw · status · beacons · messages · bulletins · browse · moving · my account
Callsign, ship name or locator: Clear       
It is possible to search using wildcards (*?) after a prefix. Example: OH*
APRS station IU2HEE-7 - show graphs
Map loading...
Comment: Op. Marco
Mic-E message: En route
Location: 45°53.34' N 10°00.75' E - locator JN55AV13MI - show map - static map
347.5 yards Southeast bearing 155° from Onore, Provincia di Bergamo, Lombardy, Italy [?]
0.9 miles East bearing 106° from Fino del Monte, Provincia di Bergamo, Lombardy, Italy
49.4 miles Northeast bearing 53° from Milan, Province of Milan, Lombardy, Italy
57.0 miles Northwest bearing 304° from Verona, Provincia di Verona, Veneto, Italy
Last position: 2018-09-24 12:55:45 EDT (16h49m ago)
2018-09-24 18:55:45 CEST local time at Onore, Italy [?]
Altitude: 2188 ft
Course: 239°
Speed: 3 MPH
Last telemetry: 2017-04-13 09:30:50 EDT (529d 20h14m ago) – show telemetry
Battery: 100 Percent, Charging/AC: 48 Charge/On/Off, GPS+Sat: 2 Sats/On/Off, A4: 500 N/A, A5: 0 N/A
 A/C     Charging     GPS     B4     B5     B6     B7     B8 
Device: Kenwood: TH-D72 (ht)
Last path: IU2HEE-7>TU5S34 via WIDE1-1,qAR,IW2NSB (good)
Positions stored: 9391
Packet rate: 40 seconds between packets on average during 475 seconds.
Other SSIDs: IU2HEE IU2HEE-1 IU2HEE-10 IU2HEE-12 IU2HEE-9 IU2HEE-C IU2HEE-DP IU2HEE-H0 IU2HEE-N IU2HEE-R IU2HEE-R0 IU2HEE-Y
Stations near current position of IU2HEE-7 - show more
callsign distance last heard - EDT      callsign distance last heard - EDT
EL-IU2HEE25.2 yards 145°2018-09-25 05:30:12 IZ2JCD-71.3 miles 279°2018-09-23 08:29:01
IU2GED-H02.7 miles 279°2018-09-25 05:30:23 IU2GED-72.8 miles 47°2018-08-31 17:42:06
IW2NSB3.3 miles 265°2018-09-25 05:38:49 IW2EJH-123.9 miles 125°2018-09-25 05:08:29
IU2GED4.2 miles 288°2018-09-25 05:39:46 IU2GED-14.2 miles 288°2018-08-29 07:51:57
IW2LEW-74.8 miles 55°2018-09-16 06:02:22 IW2EJH-115.3 miles 147°2018-09-25 05:43:42
IU2INW-75.5 miles 300°2018-09-23 09:37:42 IW2EJH-105.7 miles 166°2018-09-25 05:36:33
IW2EJH5.9 miles 152°2018-09-25 02:10:04 IW2EJH-25.9 miles 152°2018-09-23 03:38:39
IW2EJH-95.9 miles 151°2018-09-24 07:12:56 IW2FPH-76.1 miles 152°2018-09-09 06:18:37
IZ2XSB-96.1 miles 154°2018-09-25 01:50:09 IU2CIL-H06.3 miles 158°2018-09-25 05:30:40
IU2CIL-96.3 miles 158°2018-09-24 13:04:13 IW2JRQ-H06.4 miles 89°2018-09-25 05:30:54
Stations which heard IU2HEE-7 directly on radio –
callsign pkts first heard - EDT last heard longest (tx => rx) longest at - EDT
IR1BV 7 2018-09-15 04:28:43 2018-09-15 04:37:58 JN55BU > JN34RO 156.9 miles 237° 2018-09-15 04:37:58
IR2AO 36 2018-09-02 01:34:37 2018-09-19 02:49:36 JN55AV > JN45PM 44.4 miles 235° 2018-09-15 03:09:35
IR2UBX-11 5 2018-09-02 03:03:20 2018-09-02 03:40:37 JN55BU > JN45MQ 51.9 miles 257° 2018-09-02 03:40:37
IR2BZ 154 2018-09-02 02:19:57 2018-09-19 10:27:37 JN55EK > JN45XO 22.7 miles 300° 2018-09-08 04:09:29
IR2T 10 2018-09-02 02:57:45 2018-09-19 02:33:07 JN55AS > JN56EB 24.8 miles 34° 2018-09-05 02:19:17
IR2Y 25 2018-09-08 04:06:57 2018-09-08 06:29:17 JN55DL > JN55EK 5.9 miles 151° 2018-09-08 06:29:17
IW2EJH-11 115 2018-09-02 01:56:11 2018-09-19 10:52:32 JN55BV > JN55AT 3.9 miles 192° 2018-09-02 01:56:11
IR1DM 56 2018-09-02 01:50:01 2018-09-15 06:13:41 JN55BV > JN44JS 100.3 miles 219° 2018-09-02 01:50:01
IR2S 96 2018-09-02 02:20:31 2018-09-19 10:17:58 JN55EK > JN55DQ 17.8 miles 343° 2018-09-08 06:20:47
IR2CW 80 2018-09-02 01:50:00 2018-09-15 04:40:03 JN55BV > JN45NE 66.8 miles 223° 2018-09-02 01:50:00
IR2BW 20 2018-09-05 02:44:48 2018-09-19 10:12:10 JN55BO > JN55DN 8.3 miles 96° 2018-09-08 03:45:00
IW2GKZ-11 21 2018-09-02 02:23:01 2018-09-15 04:40:02 JN55BU > JN45OQ 46.1 miles 254° 2018-09-15 04:40:02
IR2DF 195 2018-09-02 02:20:31 2018-09-19 10:56:51 JN45XV > JN55AS 10.7 miles 169° 2018-09-04 12:46:08
IK2ILW 54 2018-09-02 00:53:45 2018-09-22 05:13:09 JN55BV > JN45VV 14.8 miles 268° 2018-09-15 06:00:08
IZ2UQD-11 23 2018-09-02 01:58:45 2018-09-15 04:25:55 JN55BU > JN55DW 11.3 miles 67° 2018-09-15 04:25:55
IK2CHZ-12 64 2018-09-02 03:17:28 2018-09-15 06:16:00 JN55BV > JN45UI 40.4 miles 209° 2018-09-15 03:45:59
IR2UFW 26 2018-09-02 02:28:34 2018-09-15 06:15:58 JN55BV > JN45LI 63.0 miles 237° 2018-09-15 03:45:58
IW2EJH-12 99 2018-09-02 02:00:16 2018-09-19 10:52:07 JN55AS > JN55AU 5.9 miles 5° 2018-09-19 10:35:08
IZ1XBB-1 11 2018-09-02 02:28:07 2018-09-15 04:32:20 JN55BU > JN44KV 90.0 miles 222° 2018-09-15 04:32:20
IW2NSB 929 2018-09-01 03:52:11 2018-09-24 12:55:45 JN55BV > JN45XV 7.8 miles 261° 2018-09-15 03:12:52
IQ4SC 11 2018-09-02 02:27:33 2018-09-15 04:33:55 JN55BU > JN54IO 92.4 miles 161° 2018-09-15 04:33:55
IR2BY 304 2018-09-02 02:30:27 2018-09-19 10:54:33 JN45XV > JN55BQ 15.2 miles 159° 2018-09-04 13:08:23
IR2UCL 12 2018-09-02 04:45:47 2018-09-15 04:16:47 JN55AW > JN45UP 26.1 miles 225° 2018-09-02 04:45:47
IU2GOH 148 2018-09-02 02:17:42 2018-09-19 10:17:47 JN45XV > JN55BL 31.0 miles 166° 2018-09-04 13:08:23
IQ3VO 5 2018-09-08 04:11:27 2018-09-08 06:30:17 JN55DK > JN55MQ 39.0 miles 64° 2018-09-08 06:25:01
IU2GED 441 2018-09-02 00:44:00 2018-09-23 07:38:03 JN55BV > JN45XV 8.2 miles 275° 2018-09-15 05:59:36
IR6UDA-11 8 2018-09-02 02:21:01 2018-09-02 03:43:26 JN55BU > JN63EU 178.3 miles 141° 2018-09-02 03:43:26
IR2UFH 23 2018-09-02 02:25:43 2018-09-15 04:40:02 JN55BU > JN45KG 73.1 miles 235° 2018-09-15 04:40:02
IR2DQ 129 2018-09-02 02:24:32 2018-09-15 06:28:27 JN55AW > JN55AD 52.0 miles 183° 2018-09-02 04:46:35
IR2UEI 63 2018-09-02 02:20:31 2018-09-15 04:40:02 JN55BU > JN45JL 66.8 miles 246° 2018-09-15 04:40:02
IZ1TMF 72 2018-09-02 02:20:31 2018-09-02 03:42:53 JN55BU > JN35PA 148.5 miles 248° 2018-09-02 03:42:53
IR2AL 15 2018-09-02 02:25:06 2018-09-02 03:42:53 JN55BU > JN45OL 50.4 miles 239° 2018-09-02 03:42:53
IW2GOB-12 85 2018-09-02 02:19:16 2018-09-15 06:11:36 JN55BU > JN45SH 47.9 miles 215° 2018-09-15 04:39:01
IZ2DDY 24 2018-09-08 08:58:33 2018-09-15 04:40:06 JN55BU > JN45SH 47.7 miles 216° 2018-09-15 04:40:06
IZ4ISK-7 1 2018-09-08 06:19:06 2018-09-08 06:19:06 JN55EK > JN55EK 504.7 yards 40° 2018-09-08 06:19:06

Only position packets which were originated by the station are shown here. The range statistics show some extra long hops, because some digipeaters do not correctly add themselves to the digipeater path. Please check the raw packets.
About this site
This page shows real-time information collected from the Automatic Position Reporting System Internet network (APRS-IS). APRS is used by amateur (ham) radio operators to transmit real-time position information, weather data, telemetry and messages over the radio. A vehicle equipped with a GPS receiver, a VHF transmitter or HF transceiver and a small computer device called a tracker transmits it's location, speed and course in a small data packet, which is then received by a nearby iGate receiving site which forwards the packet on the Internet. Systems connected to the Internet can send information on the APRS-IS without a radio transmitter, or collect and display information transmitted anywhere in the world.
FAQ · Blog · Discussion group · Linking to aprs.fi · AIS sites · Service status · Database statistics · Advertising on aprs.fi · Technical details · API · Change log · Planned changes · Credits and thanks · Terms Of Service · iPhone/iPad APRS